Time;durP1;ratioP1;P1;durP2;ratioP2;P2;SDS_P1;SDS_P2;PMS_P1;PMS_P2;Temp;Humidity;BMP_temperature;BMP_pressure;BME280_temperature;BME280_humidity;BME280_pressure;Samples;Min_cycle;Max_cycle;Signal;HPM_P1;HPM_P2
2022/07/13 00:01:59;;;;;;;6.85;0.90;;;;;;;14.05;76.45;98845.84;1756673;81;22119;-78
2022/07/13 00:04:25;;;;;;;2.67;0.75;;;;;;;14.02;76.40;98843.41;1757044;81;20985;-79
2022/07/13 00:06:52;;;;;;;0.78;0.78;;;;;;;14.02;76.49;98836.80;1756694;80;21101;-77
2022/07/13 00:09:20;;;;;;;1.25;0.90;;;;;;;14.04;76.32;98838.88;1756528;81;21589;-79
2022/07/13 00:11:46;;;;;;;3.50;0.80;;;;;;;14.03;76.35;98831.86;1756601;80;21189;-78
2022/07/13 00:14:13;;;;;;;1.60;0.80;;;;;;;14.01;76.46;98828.47;1756874;81;21083;-79
2022/07/13 00:16:39;;;;;;;4.33;0.60;;;;;;;13.99;76.50;98823.75;1756443;81;21044;-79
2022/07/13 00:19:06;;;;;;;3.27;0.72;;;;;;;14.01;76.44;98818.38;1756851;80;20987;-78
2022/07/13 00:21:34;;;;;;;0.60;0.60;;;;;;;14.01;76.46;98812.59;1756917;81;21118;-79
2022/07/13 00:24:01;;;;;;;1.80;0.93;;;;;;;14.00;76.54;98812.69;1756751;81;21194;-79
2022/07/13 00:26:27;;;;;;;1.45;0.80;;;;;;;13.99;76.52;98811.84;1756537;81;21801;-78
2022/07/13 00:28:54;;;;;;;1.82;0.80;;;;;;;14.00;76.55;98810.88;1756649;81;21531;-79
2022/07/13 00:31:20;;;;;;;0.80;0.80;;;;;;;14.00;76.62;98805.59;1756721;80;21079;-78
2022/07/13 00:33:47;;;;;;;3.08;0.82;;;;;;;13.98;76.62;98797.39;1756731;81;21039;-78
2022/07/13 00:36:14;;;;;;;1.42;0.80;;;;;;;13.96;76.73;98798.80;1756756;81;21000;-79
2022/07/13 00:38:42;;;;;;;1.05;0.80;;;;;;;13.95;76.80;98793.12;1756508;81;21051;-78
2022/07/13 00:41:08;;;;;;;1.32;0.72;;;;;;;13.94;76.75;98799.38;1748883;81;21033;-79
2022/07/13 00:43:35;;;;;;;1.50;1.07;;;;;;;13.95;76.76;98783.86;1745674;81;21063;-79
2022/07/13 00:46:02;;;;;;;0.68;0.68;;;;;;;13.96;76.81;98780.29;1745671;81;21551;-79
2022/07/13 00:48:28;;;;;;;1.15;0.80;;;;;;;13.93;76.90;98779.14;1745422;81;21793;-78
2022/07/13 00:50:55;;;;;;;2.55;0.90;;;;;;;13.91;76.86;98778.39;1720742;82;21116;-78
2022/07/13 00:53:23;;;;;;;5.05;1.10;;;;;;;13.92;76.78;98770.85;1745411;82;21068;-78
2022/07/13 00:55:50;;;;;;;2.77;0.95;;;;;;;13.93;76.85;98761.95;1745713;82;21043;-78
2022/07/13 00:58:17;;;;;;;3.77;0.80;;;;;;;13.93;76.74;98758.83;1745356;81;21060;-78
2022/07/13 01:00:43;;;;;;;1.17;0.70;;;;;;;13.93;76.77;98764.60;1745991;82;21421;-79
2022/07/13 01:03:10;;;;;;;1.32;0.78;;;;;;;13.92;76.77;98753.66;1745276;81;21125;-78
2022/07/13 01:05:37;;;;;;;3.08;1.02;;;;;;;13.93;76.75;98763.28;1745747;82;21028;-78
2022/07/13 01:08:04;;;;;;;1.42;0.90;;;;;;;13.94;76.68;98757.06;1745330;81;21087;-78
2022/07/13 01:10:31;;;;;;;2.50;0.65;;;;;;;13.93;76.73;98752.70;1745667;82;21084;-78
2022/07/13 01:12:57;;;;;;;3.02;0.70;;;;;;;13.91;76.69;98755.44;1745795;82;21661;-78
2022/07/13 01:15:24;;;;;;;0.72;0.70;;;;;;;13.94;76.67;98749.13;1745689;82;21579;-79
2022/07/13 01:17:50;;;;;;;2.37;1.15;;;;;;;13.95;76.69;98753.45;1745743;82;20977;-78
2022/07/13 01:20:17;;;;;;;0.70;0.70;;;;;;;13.92;76.83;98735.99;1745583;82;21064;-78
2022/07/13 01:22:50;;;;;;;0.80;0.80;;;;;;;13.89;76.98;98740.14;1745788;82;21088;-79
2022/07/13 01:25:18;;;;;;;0.80;0.80;;;;;;;13.88;76.93;98741.55;1745979;81;21013;-79
2022/07/13 01:27:48;;;;;;;3.58;0.90;;;;;;;13.86;77.08;98739.00;1745548;81;22099;-77
2022/07/13 01:30:14;;;;;;;3.52;0.78;;;;;;;13.86;77.09;98736.35;1745472;82;22205;-78
2022/07/13 01:32:48;;;;;;;5.10;0.95;;;;;;;13.86;77.10;98738.16;1745546;80;20985;-78
2022/07/13 01:35:19;;;;;;;1.87;0.70;;;;;;;13.84;77.28;98732.12;1745462;82;28311;-79
2022/07/13 01:37:47;;;;;;;2.67;1.30;;;;;;;13.82;77.35;98738.81;1745768;80;21503;-79
2022/07/13 01:40:14;;;;;;;4.12;0.70;;;;;;;13.81;77.59;98728.33;1730340;82;22258;-79
2022/07/13 01:42:47;;;;;;;2.08;0.70;;;;;;;13.77;77.97;98729.44;1745350;81;21642;-79
2022/07/13 01:45:15;;;;;;;1.42;0.72;;;;;;;13.73;78.36;98720.41;1745135;81;21040;-78
2022/07/13 01:47:44;;;;;;;2.70;0.95;;;;;;;13.70;78.69;98723.22;1745294;81;21151;-77
2022/07/13 01:50:16;;;;;;;2.87;0.80;;;;;;;13.68;79.27;98723.77;1745055;81;21079;-78
2022/07/13 01:52:43;;;;;;;1.90;1.00;;;;;;;13.63;79.78;98732.92;1745442;82;21230;-77
2022/07/13 01:55:12;;;;;;;0.70;0.70;;;;;;;13.58;79.97;98723.94;1745290;82;21047;-78
2022/07/13 01:57:40;;;;;;;2.25;0.90;;;;;;;13.55;80.58;98724.98;1747327;80;21013;-78
2022/07/13 02:00:12;;;;;;;4.58;0.85;;;;;;;13.51;80.71;98717.33;1745378;82;21005;-77
2022/07/13 02:02:39;;;;;;;1.80;0.93;;;;;;;13.48;81.25;98713.53;1745254;82;21621;-78
2022/07/13 02:05:09;;;;;;;2.67;0.80;;;;;;;13.44;81.85;98710.71;1745161;82;21987;-78
2022/07/13 02:07:37;;;;;;;1.92;0.90;;;;;;;13.41;82.36;98714.85;1745275;82;21040;-78
2022/07/13 02:10:05;;;;;;;0.95;0.90;;;;;;;13.36;82.48;98715.11;1745124;82;21134;-78
2022/07/13 02:12:34;;;;;;;0.85;0.80;;;;;;;13.33;82.92;98715.29;1745366;81;21618;-79
2022/07/13 02:15:00;;;;;;;1.10;1.00;;;;;;;13.28;83.40;98710.27;1745393;82;21558;-79
2022/07/13 02:17:28;;;;;;;1.50;0.80;;;;;;;13.25;83.71;98700.36;1745307;81;22423;-79
2022/07/13 02:19:56;;;;;;;2.05;0.70;;;;;;;13.22;84.12;98701.85;1745151;81;21043;-78
2022/07/13 02:22:23;;;;;;;2.90;1.02;;;;;;;13.20;84.15;98706.73;1745271;82;22281;-78
2022/07/13 02:24:50;;;;;;;3.27;0.90;;;;;;;13.20;84.40;98696.66;1745397;82;21649;-77
2022/07/13 02:27:17;;;;;;;0.90;0.75;;;;;;;13.18;84.73;98697.22;1745356;81;21063;-78
2022/07/13 02:29:44;;;;;;;2.20;0.80;;;;;;;13.15;84.73;98686.83;1745029;82;21281;-78
2022/07/13 02:32:11;;;;;;;1.57;0.90;;;;;;;13.12;85.00;98687.84;1763395;80;20993;-78
2022/07/13 02:34:38;;;;;;;2.05;0.78;;;;;;;13.10;85.00;98680.97;1776224;80;21095;-77
2022/07/13 02:37:04;;;;;;;3.25;0.78;;;;;;;13.09;84.87;98686.70;1776491;80;21166;-80
2022/07/13 02:39:31;;;;;;;1.20;0.80;;;;;;;13.12;84.85;98682.56;1775870;80;21094;-77
2022/07/13 02:41:58;;;;;;;2.30;0.93;;;;;;;13.15;84.80;98689.47;1769113;80;21251;-78
2022/07/13 02:44:25;;;;;;;2.35;0.80;;;;;;;13.16;85.05;98677.95;1758776;80;21071;-80
2022/07/13 02:46:51;;;;;;;4.28;1.02;;;;;;;13.15;85.06;98678.91;1758858;81;21056;-79
2022/07/13 02:49:19;;;;;;;0.70;0.70;;;;;;;13.14;85.19;98685.12;1758565;81;21088;-78
2022/07/13 02:51:46;;;;;;;7.58;1.12;;;;;;;13.10;85.20;98673.05;1758656;81;21076;-77
2022/07/13 02:54:13;;;;;;;4.53;0.80;;;;;;;13.08;85.45;98674.91;1758404;81;21543;-78
2022/07/13 02:56:40;;;;;;;1.90;0.95;;;;;;;13.05;85.65;98675.11;1758223;80;21060;-79
2022/07/13 02:59:07;;;;;;;1.25;0.85;;;;;;;13.07;85.83;98670.58;1758606;81;21107;-78
2022/07/13 03:01:33;;;;;;;2.50;1.10;;;;;;;13.07;85.86;98677.18;1758783;81;21134;-77
2022/07/13 03:03:59;;;;;;;1.02;0.78;;;;;;;13.05;85.97;98681.70;1758582;81;21092;-77
2022/07/13 03:06:27;;;;;;;0.95;0.93;;;;;;;13.01;86.12;98666.03;1758302;80;21143;-77
2022/07/13 03:08:54;;;;;;;2.40;0.70;;;;;;;13.01;86.16;98667.36;1758718;80;21063;-77
2022/07/13 03:11:20;;;;;;;1.52;0.90;;;;;;;13.00;86.47;98669.61;1758322;81;21075;-78
2022/07/13 03:13:48;;;;;;;1.35;1.00;;;;;;;12.99;86.59;98663.97;1758900;81;21060;-76
2022/07/13 03:16:15;;;;;;;1.77;1.12;;;;;;;12.99;86.81;98653.84;1758310;81;21087;-77
2022/07/13 03:18:43;;;;;;;2.33;0.80;;;;;;;12.97;87.22;98660.53;1758826;80;21092;-77
2022/07/13 03:21:09;;;;;;;1.30;0.70;;;;;;;12.95;87.26;98654.98;1758450;80;21013;-79
2022/07/13 03:23:36;;;;;;;2.83;0.80;;;;;;;12.94;87.50;98650.15;1758855;81;21075;-78
2022/07/13 03:26:04;;;;;;;3.15;1.27;;;;;;;12.92;87.60;98655.99;1758671;80;21112;-77
2022/07/13 03:28:31;;;;;;;1.72;0.72;;;;;;;12.92;87.84;98646.75;1758697;81;21115;-77
2022/07/13 03:30:58;;;;;;;1.17;0.95;;;;;;;12.91;88.07;98652.99;1758459;81;21091;-77
2022/07/13 03:33:25;;;;;;;2.98;0.82;;;;;;;12.89;88.31;98646.92;1758500;81;21024;-79
2022/07/13 03:35:51;;;;;;;2.92;0.78;;;;;;;12.87;88.38;98648.81;1758751;81;21626;-79
2022/07/13 03:38:18;;;;;;;1.90;0.80;;;;;;;12.89;88.73;98644.77;1758512;81;21095;-79
2022/07/13 03:40:44;;;;;;;1.75;0.80;;;;;;;12.88;88.85;98632.05;1758620;80;21650;-77
2022/07/13 03:43:12;;;;;;;1.20;0.80;;;;;;;12.89;88.74;98631.09;1771587;80;21809;-77
2022/07/13 03:45:39;;;;;;;1.70;1.00;;;;;;;12.93;88.77;98633.95;1775823;80;21535;-79
2022/07/13 03:48:06;;;;;;;2.27;1.12;;;;;;;12.94;88.76;98627.70;1776127;80;22366;-77
2022/07/13 03:50:33;;;;;;;1.42;0.90;;;;;;;12.93;88.93;98631.30;1774658;80;21672;-78
2022/07/13 03:52:59;;;;;;;0.75;0.75;;;;;;;12.92;88.87;98630.07;1744967;81;21047;-78
2022/07/13 03:55:26;;;;;;;2.52;1.30;;;;;;;12.91;89.05;98633.64;1745464;82;21105;-78
2022/07/13 03:57:52;;;;;;;1.15;0.90;;;;;;;12.90;89.14;98624.88;1745203;82;21099;-77
2022/07/13 04:00:19;;;;;;;0.80;0.80;;;;;;;12.91;89.28;98637.15;1745097;82;21087;-78
2022/07/13 04:02:48;;;;;;;2.37;0.80;;;;;;;12.91;89.20;98631.88;1745139;81;21047;-78
2022/07/13 04:05:14;;;;;;;2.05;0.80;;;;;;;12.92;89.18;98636.19;1745123;82;21111;-77
2022/07/13 04:07:44;;;;;;;1.45;1.00;;;;;;;12.94;89.17;98627.70;1745086;81;21630;-77
2022/07/13 04:10:12;;;;;;;1.22;0.98;;;;;;;12.95;89.04;98618.86;1745069;82;21060;-78
2022/07/13 04:12:42;;;;;;;1.17;1.07;;;;;;;12.98;88.83;98631.05;1745766;82;21465;-79
2022/07/13 04:15:11;;;;;;;0.72;0.72;;;;;;;13.00;88.75;98630.00;1745188;81;21048;-79
2022/07/13 04:17:41;;;;;;;1.17;0.80;;;;;;;13.04;88.68;98619.26;1745278;82;21074;-78
2022/07/13 04:20:08;;;;;;;1.27;1.00;;;;;;;13.04;88.77;98614.81;1745267;82;21281;-77
2022/07/13 04:22:36;;;;;;;0.80;0.80;;;;;;;13.05;88.76;98622.29;1730147;82;20985;-78
2022/07/13 04:25:04;;;;;;;3.12;0.88;;;;;;;13.06;89.95;98620.02;1745986;80;21354;-77
2022/07/13 04:27:30;;;;;;;0.78;0.70;;;;;;;13.06;89.97;98617.38;1745077;81;21065;-78
2022/07/13 04:29:57;;;;;;;0.60;0.60;;;;;;;13.09;89.30;98616.72;1745633;81;21113;-78
2022/07/13 04:32:24;;;;;;;2.80;1.07;;;;;;;13.10;89.09;98617.59;1744943;82;21112;-78
2022/07/13 04:34:50;;;;;;;1.55;0.70;;;;;;;13.10;89.08;98610.98;1745475;82;21143;-77
2022/07/13 04:37:17;;;;;;;1.65;0.70;;;;;;;13.11;89.06;98606.06;1744955;82;21092;-79
2022/07/13 04:39:44;;;;;;;2.62;0.88;;;;;;;13.14;89.05;98615.97;1745491;81;21013;-78
2022/07/13 04:42:11;;;;;;;0.60;0.60;;;;;;;13.18;89.17;98602.14;1747020;81;21001;-81
2022/07/13 04:44:38;;;;;;;4.85;0.80;;;;;;;13.20;89.06;98613.45;1756138;81;21068;-78
2022/07/13 04:47:05;;;;;;;3.77;0.68;;;;;;;13.22;89.05;98604.95;1814008;79;21159;-77
2022/07/13 04:49:33;;;;;;;2.83;0.88;;;;;;;13.24;88.98;98604.38;1814111;79;21042;-77
2022/07/13 04:52:00;;;;;;;1.87;1.05;;;;;;;13.27;88.89;98604.20;1814384;78;20965;-78
2022/07/13 04:54:27;;;;;;;1.22;0.82;;;;;;;13.27;88.90;98609.48;1814176;79;20982;-78
2022/07/13 04:56:53;;;;;;;0.70;0.70;;;;;;;13.28;88.82;98616.94;1814639;79;22193;-79
2022/07/13 04:59:20;;;;;;;1.02;0.60;;;;;;;13.29;88.88;98604.12;1814057;79;22387;-78
2022/07/13 05:01:47;;;;;;;0.75;0.57;;;;;;;13.30;88.78;98607.15;1814116;79;21627;-78
2022/07/13 05:04:13;;;;;;;1.10;0.80;;;;;;;13.35;88.59;98605.11;1814092;79;20990;-78
2022/07/13 05:06:40;;;;;;;0.78;0.78;;;;;;;13.38;88.36;98601.80;1814537;79;21048;-78
2022/07/13 05:09:06;;;;;;;0.78;0.75;;;;;;;13.40;88.42;98604.80;1814449;78;22032;-79
2022/07/13 05:11:33;;;;;;;0.72;0.70;;;;;;;13.40;88.48;98601.72;1814261;79;21693;-78
2022/07/13 05:14:00;;;;;;;1.70;0.50;;;;;;;13.39;88.50;98600.00;1814233;79;21107;-78
2022/07/13 05:16:27;;;;;;;4.87;0.70;;;;;;;13.38;88.56;98596.52;1814597;78;21024;-78
2022/07/13 05:18:56;;;;;;;1.67;0.90;;;;;;;13.41;88.60;98607.84;1814104;79;22186;-78
2022/07/13 05:21:24;;;;;;;0.78;0.70;;;;;;;13.41;88.54;98596.79;1814356;78;21220;-77
2022/07/13 05:23:51;;;;;;;0.90;0.60;;;;;;;13.42;88.43;98608.23;1814309;79;21048;-78
2022/07/13 05:26:18;;;;;;;3.52;0.80;;;;;;;13.43;88.41;98588.77;1814399;79;21029;-78
2022/07/13 05:28:45;;;;;;;1.55;0.78;;;;;;;13.44;88.51;98586.52;1813995;79;20990;-79
2022/07/13 05:31:14;;;;;;;1.55;0.60;;;;;;;13.47;88.54;98577.09;1814220;79;21048;-79
2022/07/13 05:33:41;;;;;;;2.05;0.55;;;;;;;13.49;88.45;98598.97;1814433;79;21780;-78
2022/07/13 05:36:10;;;;;;;0.70;0.70;;;;;;;13.51;88.33;98589.16;1814300;79;21049;-78
2022/07/13 05:38:38;;;;;;;1.60;0.80;;;;;;;13.52;88.37;98613.33;1814391;79;21119;-78
2022/07/13 05:41:05;;;;;;;1.10;0.68;;;;;;;13.48;88.67;98590.66;1813970;79;21060;-77
2022/07/13 05:43:31;;;;;;;1.25;0.90;;;;;;;13.45;88.96;98593.48;1815431;79;21001;-79
2022/07/13 05:45:58;;;;;;;0.70;0.70;;;;;;;13.44;89.21;98589.16;1816201;79;21653;-79
2022/07/13 05:48:25;;;;;;;2.65;0.80;;;;;;;13.44;89.63;98586.52;1816329;79;21009;-78
2022/07/13 05:50:51;;;;;;;1.30;0.70;;;;;;;13.43;89.78;98584.81;1816079;79;21103;-78
2022/07/13 05:53:19;;;;;;;2.55;0.90;;;;;;;13.44;90.30;98586.52;1816066;79;20985;-79
2022/07/13 05:55:47;;;;;;;0.98;0.65;;;;;;;13.43;90.63;98596.70;1817272;77;21055;-78
2022/07/13 05:58:14;;;;;;;0.90;0.90;;;;;;;13.35;92.15;98598.02;1816559;78;21561;-79
2022/07/13 06:00:41;;;;;;;1.52;0.80;;;;;;;13.33;92.02;98586.70;1816144;79;21035;-79
2022/07/13 06:03:07;;;;;;;1.40;0.90;;;;;;;13.31;92.47;98581.93;1816402;79;21048;-78
2022/07/13 06:05:34;;;;;;;2.20;0.80;;;;;;;13.28;93.01;98594.03;1816196;79;21024;-77
2022/07/13 06:08:00;;;;;;;1.85;0.85;;;;;;;13.26;93.38;98580.52;1816215;79;21483;-78
2022/07/13 06:10:27;;;;;;;1.05;0.80;;;;;;;13.25;93.65;98583.64;1816181;79;21229;-79
2022/07/13 06:12:54;;;;;;;1.57;0.88;;;;;;;13.27;93.80;98583.08;1816076;79;21051;-76
2022/07/13 06:15:21;;;;;;;2.10;0.95;;;;;;;13.28;93.64;98586.55;1816740;78;21079;-76
2022/07/13 06:17:48;;;;;;;0.90;0.90;;;;;;;13.28;93.72;98576.86;1820433;77;21028;-78
2022/07/13 06:20:15;;;;;;;4.53;1.17;;;;;;;13.31;93.75;98587.22;1816564;79;21036;-77
2022/07/13 06:22:42;;;;;;;0.90;0.90;;;;;;;13.31;94.06;98576.65;1816187;78;21555;-78
2022/07/13 06:25:09;;;;;;;0.75;0.75;;;;;;;13.30;94.34;98571.00;1816287;79;21021;-78
2022/07/13 06:27:36;;;;;;;0.80;0.80;;;;;;;13.29;94.80;98577.70;1816258;78;21068;-78
2022/07/13 06:30:03;;;;;;;0.75;0.60;;;;;;;13.31;94.74;98579.29;1816523;78;20969;-78
2022/07/13 06:32:30;;;;;;;2.60;0.78;;;;;;;13.34;94.67;98577.81;1815921;78;21055;-77
2022/07/13 06:34:58;;;;;;;1.95;0.70;;;;;;;13.37;94.92;98575.00;1816133;79;21814;-76
2022/07/13 06:37:24;;;;;;;2.98;0.82;;;;;;;13.41;95.12;98597.27;1816045;78;21648;-77
2022/07/13 06:39:50;;;;;;;1.85;0.70;;;;;;;13.43;94.93;98575.56;1816482;78;21028;-78
2022/07/13 06:42:18;;;;;;;0.80;0.80;;;;;;;13.48;95.00;98590.66;1816023;79;21190;-78
2022/07/13 06:44:47;;;;;;;1.00;0.80;;;;;;;13.50;94.67;98576.42;1816069;78;21594;-76
2022/07/13 06:47:14;;;;;;;3.45;0.80;;;;;;;13.54;94.52;98575.76;1816139;78;21595;-78
2022/07/13 06:49:41;;;;;;;3.25;0.93;;;;;;;13.55;94.22;98574.83;1816140;78;21040;-77
2022/07/13 06:52:07;;;;;;;1.55;0.60;;;;;;;13.56;94.47;98577.83;1816193;78;21095;-78
2022/07/13 06:54:35;;;;;;;1.07;0.70;;;;;;;13.57;94.74;98579.53;1816207;79;21120;-76
2022/07/13 06:57:01;;;;;;;2.37;0.90;;;;;;;13.58;94.72;98577.73;1816184;78;21115;-77
2022/07/13 06:59:27;;;;;;;0.60;0.60;;;;;;;13.62;94.78;98572.17;1816072;79;21132;-77
2022/07/13 07:01:54;;;;;;;1.05;0.65;;;;;;;13.65;94.56;98581.23;1816407;78;20981;-79
2022/07/13 07:04:21;;;;;;;0.98;0.57;;;;;;;13.65;94.87;98590.48;1815933;78;21064;-78
2022/07/13 07:06:47;;;;;;;2.00;1.00;;;;;;;13.65;95.07;98577.72;1816319;78;21089;-79
2022/07/13 07:09:14;;;;;;;3.85;0.70;;;;;;;13.65;95.32;98579.05;1815805;78;21542;-78
2022/07/13 07:11:43;;;;;;;1.25;0.70;;;;;;;13.63;95.32;98576.48;1816583;78;21226;-78
2022/07/13 07:14:10;;;;;;;2.55;0.90;;;;;;;13.62;95.79;98585.87;1816261;78;21029;-78
2022/07/13 07:16:37;;;;;;;0.88;0.82;;;;;;;13.65;95.99;98585.20;1816588;78;21586;-78
2022/07/13 07:19:04;;;;;;;1.95;0.70;;;;;;;13.67;96.35;98585.95;1816108;78;21099;-78
2022/07/13 07:21:30;;;;;;;1.75;0.60;;;;;;;13.67;96.47;98585.95;1816266;78;21091;-78
2022/07/13 07:23:59;;;;;;;0.60;0.60;;;;;;;13.68;96.49;98603.48;1816108;78;21152;-78
2022/07/13 07:26:26;;;;;;;1.32;0.60;;;;;;;13.70;96.38;98585.77;1816173;79;20981;-78
2022/07/13 07:28:52;;;;;;;1.77;0.70;;;;;;;13.71;96.61;98566.29;1816317;78;21063;-77
2022/07/13 07:31:19;;;;;;;1.00;0.72;;;;;;;13.75;96.54;98573.10;1816235;79;21048;-78
2022/07/13 07:33:46;;;;;;;1.32;0.70;;;;;;;13.79;96.83;98572.44;1816365;78;21653;-77
2022/07/13 07:36:12;;;;;;;0.68;0.60;;;;;;;13.80;96.20;98574.59;1816028;78;21265;-78
2022/07/13 07:38:39;;;;;;;2.60;0.70;;;;;;;13.78;96.17;98569.40;1816165;78;21022;-78
2022/07/13 07:41:05;;;;;;;1.15;0.70;;;;;;;13.78;96.35;98565.91;1816379;79;21035;-77
2022/07/13 07:43:32;;;;;;;1.40;0.80;;;;;;;13.77;96.01;98562.88;1815552;78;21114;-79
2022/07/13 07:45:59;;;;;;;3.80;0.80;;;;;;;13.77;96.12;98562.88;1813456;78;21059;-78
2022/07/13 07:48:25;;;;;;;1.75;0.80;;;;;;;13.74;96.08;98563.46;1813626;78;21224;-77
2022/07/13 07:50:51;;;;;;;0.70;0.70;;;;;;;13.75;95.99;98561.20;1813618;79;21005;-77
2022/07/13 07:53:18;;;;;;;0.80;0.80;;;;;;;13.78;95.99;98563.27;1813833;79;21048;-78
2022/07/13 07:55:44;;;;;;;1.20;0.78;;;;;;;13.81;96.00;98565.73;1813299;79;21602;-77
2022/07/13 07:58:11;;;;;;;0.80;0.80;;;;;;;13.88;95.91;98572.31;1813812;78;21094;-77
2022/07/13 08:00:38;;;;;;;0.70;0.70;;;;;;;13.91;95.59;98569.48;1786063;80;21640;-77
2022/07/13 08:03:04;;;;;;;0.98;0.68;;;;;;;13.93;95.42;98584.77;1786298;80;21471;-78
2022/07/13 08:05:32;;;;;;;0.80;0.80;;;;;;;13.95;95.29;98592.13;1786064;80;21102;-77
2022/07/13 08:07:58;;;;;;;1.17;0.95;;;;;;;13.90;95.25;98584.52;1785976;80;21076;-76
2022/07/13 08:10:25;;;;;;;2.98;0.70;;;;;;;13.89;95.61;98592.54;1786113;80;21070;-77
2022/07/13 08:12:53;;;;;;;0.50;0.50;;;;;;;13.89;95.62;98599.15;1787765;78;21050;-78
2022/07/13 08:15:20;;;;;;;0.57;0.57;;;;;;;13.89;95.77;98608.41;1813772;79;20987;-78
2022/07/13 08:17:47;;;;;;;0.65;0.65;;;;;;;13.87;95.85;98589.12;1786071;80;21061;-78
2022/07/13 08:20:14;;;;;;;0.50;0.50;;;;;;;13.87;96.03;98597.92;1786613;80;21076;-77
2022/07/13 08:22:41;;;;;;;0.70;0.70;;;;;;;13.88;96.27;98604.05;1786041;80;21109;-78
2022/07/13 08:25:09;;;;;;;1.05;0.78;;;;;;;13.88;96.80;98593.47;1786313;80;20989;-78
2022/07/13 08:27:36;;;;;;;2.30;0.75;;;;;;;13.87;97.04;98587.34;1786539;80;22160;-79
2022/07/13 08:30:03;;;;;;;0.93;0.65;;;;;;;13.91;97.50;98588.00;1786405;80;21082;-78
2022/07/13 08:32:30;;;;;;;0.60;0.60;;;;;;;13.93;97.56;98592.70;1786330;80;22278;-78
2022/07/13 08:38:41;;;;;;;1.52;0.72;;;;;;;13.96;97.63;98592.52;1786581;80;21544;-77
2022/07/13 08:40:21;;;;;;;0.60;0.60;;;;;;;13.97;97.67;98592.91;1772573;80;21472;-78
2022/07/13 08:42:47;;;;;;;0.50;0.50;;;;;;;13.97;97.55;98592.91;1786718;80;21585;-77
2022/07/13 08:45:14;;;;;;;0.62;0.62;;;;;;;13.94;97.55;98591.77;1759658;80;21103;-78
2022/07/13 08:47:45;;;;;;;0.60;0.60;;;;;;;13.94;97.78;98599.70;1758696;81;21084;-78
2022/07/13 08:50:12;;;;;;;0.65;0.60;;;;;;;13.93;97.92;98599.31;1758467;81;21867;-78
2022/07/13 08:52:41;;;;;;;0.55;0.47;;;;;;;13.91;97.96;98600.73;1758434;81;21658;-78
2022/07/13 08:55:08;;;;;;;0.50;0.50;;;;;;;13.91;97.95;98599.41;1758625;81;21562;-80
2022/07/13 08:57:38;;;;;;;0.50;0.50;;;;;;;13.94;97.98;98595.74;1758402;81;21024;-78
2022/07/13 09:00:09;;;;;;;2.47;0.65;;;;;;;13.97;98.13;98592.91;1758846;81;21114;-78
2022/07/13 09:02:36;;;;;;;0.55;0.55;;;;;;;14.01;98.59;98598.36;1758485;80;21924;-78
2022/07/13 09:05:07;;;;;;;1.15;0.70;;;;;;;14.03;98.34;98590.34;1758514;81;21669;-78
2022/07/13 09:07:34;;;;;;;1.05;0.60;;;;;;;14.07;98.50;98584.76;1758318;80;21115;-77
2022/07/13 09:10:02;;;;;;;1.27;0.60;;;;;;;14.13;98.60;98586.15;1758440;80;21029;-78
2022/07/13 09:12:29;;;;;;;0.62;0.50;;;;;;;14.21;98.58;98588.32;1758448;81;21476;-77
2022/07/13 09:15:00;;;;;;;0.80;0.60;;;;;;;14.29;98.41;98587.35;1758916;81;21073;-77
2022/07/13 09:17:39;;;;;;;1.62;0.68;;;;;;;14.35;97.79;98596.19;1758445;81;21021;-76
2022/07/13 09:20:20;;;;;;;0.50;0.50;;;;;;;14.38;97.63;98597.81;1758314;80;21048;-77
2022/07/13 09:22:55;;;;;;;0.95;0.47;;;;;;;14.44;97.73;98590.77;1758185;80;21071;-78
2022/07/13 09:25:37;;;;;;;0.40;0.40;;;;;;;14.52;97.24;98603.52;1758332;81;21119;-76
2022/07/13 09:28:12;;;;;;;0.85;0.47;;;;;;;14.52;96.45;98602.19;1758664;80;21238;-76
2022/07/13 09:30:42;;;;;;;1.05;0.40;;;;;;;14.45;96.35;98586.70;1758376;80;21095;-77
2022/07/13 09:33:08;;;;;;;0.40;0.40;;;;;;;14.45;96.25;98587.19;1758398;80;21079;-75
2022/07/13 09:35:50;;;;;;;0.40;0.40;;;;;;;14.44;96.16;98583.70;1735026;81;21056;-75
2022/07/13 09:38:36;;;;;;;0.40;0.40;;;;;;;14.42;96.13;98578.95;1759033;81;21123;-76
2022/07/13 09:41:19;;;;;;;0.82;0.40;;;;;;;14.42;96.29;98580.28;1758196;81;21136;-76
2022/07/13 09:47:00;;;;;;;0.60;0.60;;;;;;;14.50;96.13;98581.95;1758422;81;21119;-78
2022/07/13 09:49:42;;;;;;;0.60;0.40;;;;;;;14.52;95.39;98574.41;1758658;81;21595;-75
2022/07/13 09:52:17;;;;;;;2.72;0.47;;;;;;;14.52;95.25;98587.63;1758234;80;21507;-78
2022/07/13 09:54:51;;;;;;;0.75;0.37;;;;;;;14.52;95.01;98584.98;1758603;81;21107;-77
2022/07/13 09:57:17;;;;;;;0.60;0.40;;;;;;;14.51;95.09;98589.45;1758019;81;21053;-77
2022/07/13 09:59:44;;;;;;;0.50;0.40;;;;;;;14.53;95.02;98589.34;1770563;79;21102;-76
2022/07/13 10:02:11;;;;;;;0.40;0.40;;;;;;;14.52;95.02;98590.28;1769681;81;21557;-76
2022/07/13 10:04:39;;;;;;;0.93;0.50;;;;;;;14.50;94.47;98596.52;1769282;80;21563;-76
2022/07/13 10:07:07;;;;;;;2.05;0.40;;;;;;;14.50;94.71;98591.70;1781849;80;21121;-77
2022/07/13 10:09:38;;;;;;;0.37;0.37;;;;;;;14.52;94.73;98593.77;1769634;81;20985;-77
2022/07/13 10:12:12;;;;;;;0.40;0.40;;;;;;;14.52;94.77;98581.86;1769430;81;21000;-77
2022/07/13 10:14:40;;;;;;;;;;;;;;;14.54;94.85;98574.69;1772090;80;21724;-77
2022/07/13 10:17:12;;;;;;;3.30;0.50;;;;;;;14.58;94.89;98587.24;1769597;81;20191;-77
2022/07/13 10:20:02;;;;;;;0.50;0.50;;;;;;;14.59;94.86;98575.72;1786512;79;21987;-75
2022/07/13 10:22:33;;;;;;;0.62;0.40;;;;;;;14.60;94.74;98570.32;1798091;79;21098;-78
2022/07/13 10:25:00;;;;;;;0.42;0.42;;;;;;;14.62;94.61;98576.84;1798542;79;21047;-76
2022/07/13 10:27:35;;;;;;;0.60;0.60;;;;;;;14.62;94.77;98576.36;1798173;79;21508;-77
2022/07/13 10:30:19;;;;;;;0.57;0.50;;;;;;;14.62;94.75;98567.58;1797014;79;20969;-75
2022/07/13 10:32:46;;;;;;;0.50;0.50;;;;;;;14.63;94.79;98567.97;1798219;79;21157;-75
2022/07/13 10:35:16;;;;;;;0.65;0.40;;;;;;;14.65;94.77;98554.98;1798184;79;21048;-76
2022/07/13 10:38:04;;;;;;;0.88;0.47;;;;;;;14.69;94.65;98556.94;1798198;79;21110;-76
2022/07/13 10:40:32;;;;;;;1.12;0.50;;;;;;;14.75;94.44;98562.33;1798516;79;20985;-77
2022/07/13 10:43:05;;;;;;;0.70;0.50;;;;;;;14.80;94.17;98562.38;1798443;79;21110;-76
2022/07/13 10:45:41;;;;;;;1.15;0.50;;;;;;;14.84;93.96;98561.23;1799013;79;22217;-76
2022/07/13 10:48:32;;;;;;;0.40;0.40;;;;;;;14.86;93.61;98563.30;1798439;78;21534;-76
2022/07/13 10:51:02;;;;;;;0.62;0.40;;;;;;;14.84;93.34;98562.56;1797809;79;21553;-75
2022/07/13 10:53:46;;;;;;;0.50;0.50;;;;;;;14.83;93.42;98562.17;1798375;79;20984;-77
2022/07/13 10:56:20;;;;;;;1.60;1.00;;;;;;;14.82;93.52;98556.49;1798934;79;21149;-76
2022/07/13 10:58:49;;;;;;;0.40;0.40;;;;;;;14.78;93.68;98565.61;1798933;79;22322;-76
2022/07/13 11:01:42;;;;;;;2.87;0.60;;;;;;;14.77;93.93;98567.03;1798564;79;21107;-75
2022/07/13 11:04:11;;;;;;;0.42;0.42;;;;;;;14.77;94.08;98563.06;1798472;78;21142;-76
2022/07/13 11:06:39;;;;;;;0.80;0.55;;;;;;;14.77;93.96;98567.87;1798516;78;21064;-76
2022/07/13 11:09:16;;;;;;;0.82;0.50;;;;;;;14.76;94.19;98571.94;1798479;78;21302;-76
2022/07/13 11:11:51;;;;;;;1.30;0.50;;;;;;;14.74;94.25;98572.05;1798766;79;21158;-76
2022/07/13 11:14:45;;;;;;;1.27;0.80;;;;;;;14.73;94.42;98577.47;1798163;79;21020;-76
2022/07/13 11:17:20;;;;;;;1.67;1.17;;;;;;;14.67;94.25;98574.73;1799017;78;21000;-76
2022/07/13 11:20:09;;;;;;;2.22;0.70;;;;;;;14.63;94.52;98577.23;1798438;79;21091;-76
2022/07/13 11:25:40;;;;;;;2.30;0.57;;;;;;;14.59;94.92;98586.30;1798650;79;22079;-76
2022/07/13 11:28:43;;;;;;;1.15;0.55;;;;;;;14.59;94.79;98581.01;1798502;79;21399;-76
2022/07/13 11:31:10;;;;;;;0.88;0.53;;;;;;;14.59;94.82;98575.72;1797654;79;21732;-76
2022/07/13 11:33:37;;;;;;;1.17;0.50;;;;;;;14.61;94.78;98569.39;1772136;79;21565;-77
2022/07/13 11:36:05;;;;;;;0.80;0.50;;;;;;;14.64;94.53;98564.34;1799390;79;20987;-77
2022/07/13 11:38:35;;;;;;;0.50;0.50;;;;;;;14.69;94.34;98566.21;1798627;78;21817;-75
2022/07/13 11:41:03;;;;;;;0.70;0.57;;;;;;;14.73;94.25;98565.07;1798981;78;21127;-76
2022/07/13 11:43:29;;;;;;;0.50;0.50;;;;;;;14.79;94.49;98567.77;1798552;79;21066;-76
2022/07/13 11:45:56;;;;;;;1.07;0.40;;;;;;;14.79;93.91;98563.34;1783498;78;21036;-77
2022/07/13 11:48:24;;;;;;;0.50;0.50;;;;;;;14.78;93.68;98555.02;1807556;79;21518;-76
2022/07/13 11:50:52;;;;;;;0.45;0.40;;;;;;;14.79;94.01;98565.12;1818438;78;21227;-76